createdAt,value
2023-03-27T00:02:24.366Z,6.85
2023-03-27T00:04:54.407Z,6.89
2023-03-27T00:07:22.553Z,6.76
2023-03-27T00:09:51.595Z,6.88
2023-03-27T00:12:19.231Z,6.82
2023-03-27T00:14:47.535Z,6.66
2023-03-27T00:17:15.438Z,6.43
2023-03-27T00:19:44.170Z,6.52
2023-03-27T00:22:11.947Z,6.60
2023-03-27T00:24:39.545Z,6.58
2023-03-27T00:27:09.131Z,6.46
2023-03-27T00:29:37.087Z,6.19
2023-03-27T00:32:05.604Z,6.30
2023-03-27T00:34:33.244Z,6.21
2023-03-27T00:37:01.087Z,6.05
2023-03-27T00:39:28.900Z,6.06
2023-03-27T00:41:56.516Z,5.97
2023-03-27T00:44:31.150Z,6.03
2023-03-27T00:46:59.157Z,6.05
2023-03-27T00:49:31.503Z,5.79
2023-03-27T00:52:00.939Z,5.95
2023-03-27T00:54:31.718Z,5.94
2023-03-27T00:57:02.942Z,5.77
2023-03-27T00:59:37.865Z,5.73
2023-03-27T01:02:06.744Z,5.61
2023-03-27T01:04:37.031Z,5.80
2023-03-27T01:07:07.274Z,5.64
2023-03-27T01:09:35.536Z,5.61
2023-03-27T01:12:20.641Z,5.67
2023-03-27T01:15:00.667Z,5.83
2023-03-27T01:17:42.906Z,5.64
2023-03-27T01:20:55.595Z,5.60
2023-03-27T01:24:17.546Z,5.57
2023-03-27T01:27:05.430Z,5.47
2023-03-27T01:29:54.066Z,5.45
2023-03-27T01:32:50.574Z,5.53
2023-03-27T01:35:29.905Z,5.67
2023-03-27T01:38:28.671Z,5.48
2023-03-27T01:41:02.608Z,5.37
2023-03-27T01:43:36.454Z,5.46
2023-03-27T01:46:08.500Z,5.45
2023-03-27T01:48:41.751Z,5.39
2023-03-27T01:51:13.644Z,5.41
2023-03-27T01:53:46.034Z,5.49
2023-03-27T01:56:26.096Z,5.44
2023-03-27T01:58:58.540Z,5.31
2023-03-27T02:01:32.646Z,5.19
2023-03-27T02:04:04.077Z,5.13
2023-03-27T02:06:35.308Z,5.21
2023-03-27T02:09:06.676Z,5.00
2023-03-27T02:11:39.162Z,4.76
2023-03-27T02:14:10.379Z,4.66
2023-03-27T02:16:43.319Z,4.62
2023-03-27T02:19:19.718Z,4.60
2023-03-27T02:21:48.372Z,4.47
2023-03-27T02:24:18.667Z,4.41
2023-03-27T02:26:55.660Z,4.29
2023-03-27T02:29:51.579Z,4.21
2023-03-27T02:32:32.340Z,4.00
2023-03-27T02:35:12.494Z,3.95
2023-03-27T02:37:51.660Z,3.80
2023-03-27T02:40:30.595Z,4.11
2023-03-27T02:43:06.578Z,3.77
2023-03-27T02:45:48.935Z,3.86
2023-03-27T02:48:23.955Z,3.98
2023-03-27T02:50:56.620Z,3.81
2023-03-27T02:53:27.076Z,3.66
2023-03-27T02:55:57.710Z,3.84
2023-03-27T02:58:35.068Z,3.65
2023-03-27T03:01:09.299Z,3.74
2023-03-27T03:04:07.399Z,3.63
2023-03-27T03:06:35.960Z,3.61
2023-03-27T03:09:06.185Z,3.42
2023-03-27T03:11:36.302Z,3.59
2023-03-27T03:14:05.417Z,3.40
2023-03-27T03:16:33.654Z,3.44
2023-03-27T03:19:01.914Z,3.39
2023-03-27T03:21:29.695Z,3.30
2023-03-27T03:23:58.284Z,3.54
2023-03-27T03:26:26.978Z,3.56
2023-03-27T03:29:00.964Z,3.49
2023-03-27T03:31:44.379Z,3.62
2023-03-27T03:34:13.248Z,3.80
2023-03-27T03:36:42.158Z,3.54
2023-03-27T03:39:11.363Z,3.66
2023-03-27T03:41:39.159Z,3.78
2023-03-27T03:44:06.791Z,3.08
2023-03-27T03:46:35.940Z,3.20
2023-03-27T03:49:04.592Z,3.05
2023-03-27T03:51:32.627Z,3.07
2023-03-27T03:54:01.253Z,2.97
2023-03-27T03:56:30.492Z,2.91
2023-03-27T03:58:58.762Z,2.92
2023-03-27T04:01:27.987Z,2.78
2023-03-27T04:03:56.959Z,2.72
2023-03-27T04:06:25.600Z,2.73
2023-03-27T04:08:53.914Z,2.75
2023-03-27T04:11:21.591Z,2.81
2023-03-27T04:13:49.770Z,2.80
2023-03-27T04:16:17.832Z,2.60
2023-03-27T04:18:46.378Z,2.66
2023-03-27T04:21:15.694Z,2.55
2023-03-27T04:23:43.895Z,2.59
2023-03-27T04:26:12.687Z,2.55
2023-03-27T04:28:41.877Z,2.45
2023-03-27T04:31:10.916Z,2.35
2023-03-27T04:33:46.728Z,2.33
2023-03-27T04:36:15.998Z,2.56
2023-03-27T04:38:44.215Z,2.60
2023-03-27T04:41:12.062Z,2.40
2023-03-27T04:43:42.112Z,2.34
2023-03-27T04:46:10.039Z,2.38
2023-03-27T04:48:39.058Z,2.27
2023-03-27T04:51:08.310Z,2.36
2023-03-27T04:53:37.952Z,2.40
2023-03-27T04:56:07.109Z,2.43
2023-03-27T04:58:37.339Z,2.39
2023-03-27T05:01:05.966Z,2.34
2023-03-27T05:03:34.843Z,2.39
2023-03-27T05:06:04.052Z,2.34
2023-03-27T05:08:31.726Z,2.26
2023-03-27T05:11:00.860Z,2.30
2023-03-27T05:13:29.293Z,2.20
2023-03-27T05:15:59.099Z,2.21
2023-03-27T05:18:27.482Z,2.24
2023-03-27T05:20:55.647Z,2.26
2023-03-27T05:23:23.649Z,2.24
2023-03-27T05:26:00.220Z,2.27
2023-03-27T05:28:30.534Z,2.18
2023-03-27T05:30:58.877Z,2.39
2023-03-27T05:33:26.992Z,2.34
2023-03-27T05:35:54.844Z,2.35
2023-03-27T05:38:24.479Z,2.36
2023-03-27T05:40:52.627Z,2.34
2023-03-27T05:43:20.434Z,2.36
2023-03-27T05:45:49.564Z,2.40
2023-03-27T05:48:17.420Z,2.50
2023-03-27T05:50:45.219Z,2.54
2023-03-27T05:53:13.125Z,2.65
2023-03-27T05:55:41.034Z,2.85
2023-03-27T05:58:10.094Z,2.98
2023-03-27T06:00:38.585Z,3.10
2023-03-27T06:03:08.353Z,3.14
2023-03-27T06:05:36.894Z,3.48
2023-03-27T06:08:04.889Z,3.33
2023-03-27T06:10:33.860Z,3.64
2023-03-27T06:13:02.857Z,3.76
2023-03-27T06:15:31.034Z,3.36
2023-03-27T06:17:58.723Z,3.43
2023-03-27T06:20:28.354Z,3.11
2023-03-27T06:22:59.426Z,3.31
2023-03-27T06:25:28.329Z,3.12
2023-03-27T06:27:56.053Z,3.16
2023-03-27T06:30:25.727Z,3.37
2023-03-27T06:32:57.448Z,3.35
2023-03-27T06:35:27.591Z,3.21
2023-03-27T06:37:56.745Z,3.38
2023-03-27T06:40:27.846Z,3.70
2023-03-27T06:42:58.424Z,3.80
2023-03-27T06:45:28.339Z,3.69
2023-03-27T06:48:15.301Z,3.85
2023-03-27T06:50:49.648Z,3.79
2023-03-27T06:55:49.198Z,4.35
2023-03-27T06:58:18.697Z,4.17
2023-03-27T07:00:49.113Z,4.56
2023-03-27T07:03:18.008Z,4.98
2023-03-27T07:05:48.881Z,4.52
2023-03-27T07:08:23.216Z,4.64
2023-03-27T07:11:07.452Z,4.73
2023-03-27T07:13:39.433Z,5.05
2023-03-27T07:16:08.262Z,5.82
2023-03-27T07:18:36.083Z,6.27
2023-03-27T07:21:05.946Z,6.32
2023-03-27T07:23:33.566Z,5.87
2023-03-27T07:26:02.128Z,5.41
2023-03-27T07:28:29.757Z,5.33
2023-03-27T07:30:57.551Z,5.18
2023-03-27T07:33:25.441Z,5.02
2023-03-27T07:35:53.404Z,5.69
2023-03-27T07:38:22.520Z,5.32
2023-03-27T07:40:50.438Z,5.76
2023-03-27T07:43:18.284Z,5.49
2023-03-27T07:45:46.064Z,5.63
2023-03-27T07:48:16.147Z,5.96
2023-03-27T07:50:44.903Z,6.69
2023-03-27T07:53:32.879Z,6.53
2023-03-27T07:56:02.769Z,6.67
2023-03-27T07:58:30.470Z,7.21
2023-03-27T08:01:02.209Z,6.98
2023-03-27T08:03:31.461Z,7.77
2023-03-27T08:06:01.195Z,7.18
2023-03-27T08:08:29.023Z,7.96
2023-03-27T08:10:57.904Z,8.13
2023-03-27T08:13:26.972Z,8.06
2023-03-27T08:16:03.473Z,8.65
2023-03-27T08:18:31.117Z,8.30
2023-03-27T08:20:59.123Z,8.43
2023-03-27T08:23:27.321Z,8.29
2023-03-27T08:26:00.448Z,7.66
2023-03-27T08:28:29.936Z,7.02
2023-03-27T08:31:02.544Z,6.80
2023-03-27T08:33:30.815Z,6.27
2023-03-27T08:35:59.243Z,6.03
2023-03-27T08:38:28.617Z,6.31
2023-03-27T08:40:59.149Z,7.80
2023-03-27T08:43:31.607Z,6.89
2023-03-27T08:46:03.283Z,6.58
2023-03-27T08:48:36.357Z,6.89
2023-03-27T08:51:08.449Z,6.56
2023-03-27T08:53:42.889Z,6.54
2023-03-27T08:56:15.043Z,7.71
2023-03-27T08:58:45.345Z,8.70
2023-03-27T09:01:20.276Z,9.12
2023-03-27T09:03:57.252Z,9.35
2023-03-27T09:06:27.788Z,9.23
2023-03-27T09:09:04.687Z,8.30
2023-03-27T09:11:41.842Z,8.02
2023-03-27T09:14:19.282Z,7.14
2023-03-27T09:16:51.067Z,6.92
2023-03-27T09:19:29.076Z,7.21
2023-03-27T09:22:02.611Z,7.61
2023-03-27T09:24:33.869Z,7.17
2023-03-27T09:27:16.305Z,7.70
2023-03-27T09:29:46.135Z,9.17
2023-03-27T09:32:16.766Z,9.13
2023-03-27T09:34:45.088Z,9.85
2023-03-27T09:37:17.460Z,10.40
2023-03-27T09:39:49.303Z,9.52
2023-03-27T09:42:21.967Z,10.22
2023-03-27T09:44:55.844Z,9.59
2023-03-27T09:47:32.273Z,9.38
2023-03-27T09:50:16.634Z,8.49
2023-03-27T09:52:44.309Z,7.73
2023-03-27T09:55:25.231Z,7.73
2023-03-27T09:57:58.853Z,7.43
2023-03-27T10:00:31.551Z,8.09
2023-03-27T10:03:05.719Z,8.55
2023-03-27T10:05:33.724Z,9.50
2023-03-27T10:08:02.491Z,10.20
2023-03-27T10:10:32.656Z,11.29
2023-03-27T10:13:03.260Z,11.85
2023-03-27T10:15:38.673Z,12.03
2023-03-27T10:18:09.171Z,9.33
2023-03-27T10:20:37.400Z,8.71
2023-03-27T10:23:09.702Z,8.31
2023-03-27T10:25:39.102Z,8.85
2023-03-27T10:28:16.694Z,9.45
2023-03-27T10:30:46.014Z,10.76
2023-03-27T10:33:14.101Z,12.00
2023-03-27T10:35:44.919Z,11.62
2023-03-27T10:38:15.268Z,10.86
2023-03-27T10:40:48.838Z,10.38
2023-03-27T10:43:25.607Z,9.62
2023-03-27T10:45:57.369Z,8.88
2023-03-27T10:48:38.960Z,8.78
2023-03-27T10:51:09.342Z,9.54
2023-03-27T10:53:44.344Z,10.49
2023-03-27T10:56:18.171Z,11.26
2023-03-27T10:58:50.356Z,10.72
2023-03-27T11:01:26.401Z,10.32
2023-03-27T11:04:00.680Z,9.97
2023-03-27T11:06:34.381Z,9.68
2023-03-27T11:09:06.466Z,9.12
2023-03-27T11:11:38.420Z,8.76
2023-03-27T11:14:14.180Z,8.51
2023-03-27T11:16:48.716Z,7.59
2023-03-27T11:19:32.117Z,7.27
2023-03-27T11:22:04.692Z,6.61
2023-03-27T11:24:38.340Z,6.30
2023-03-27T11:27:13.924Z,6.13
2023-03-27T11:29:51.168Z,5.79
2023-03-27T11:32:29.526Z,7.17
2023-03-27T11:35:04.231Z,8.52
2023-03-27T11:37:41.426Z,10.15
2023-03-27T11:40:17.020Z,10.28
2023-03-27T11:42:46.516Z,10.65
2023-03-27T11:45:16.746Z,11.45
2023-03-27T11:48:11.117Z,11.99
2023-03-27T11:50:48.483Z,11.02
2023-03-27T11:53:39.271Z,11.01
2023-03-27T11:56:32.445Z,10.91
2023-03-27T11:59:14.499Z,12.03
2023-03-27T12:01:48.307Z,11.83
2023-03-27T12:04:36.654Z,12.07
2023-03-27T12:07:15.383Z,11.34
2023-03-27T12:10:05.112Z,10.84
2023-03-27T12:12:55.368Z,9.97
2023-03-27T12:15:54.018Z,11.33
2023-03-27T12:18:36.094Z,11.23
2023-03-27T12:21:17.901Z,11.61
2023-03-27T12:24:16.188Z,10.63
2023-03-27T12:26:57.858Z,10.17
2023-03-27T12:29:45.827Z,6.94
2023-03-27T12:32:26.616Z,5.73
2023-03-27T12:34:57.182Z,5.82
2023-03-27T12:37:30.105Z,4.93
2023-03-27T12:40:00.139Z,5.05
2023-03-27T12:42:44.421Z,4.96
2023-03-27T12:45:18.277Z,5.52
2023-03-27T12:48:04.780Z,6.15
2023-03-27T12:50:35.588Z,7.21
2023-03-27T12:53:06.437Z,7.87
2023-03-27T12:55:35.823Z,8.04
2023-03-27T12:58:05.899Z,8.75
2023-03-27T13:00:34.482Z,9.73
2023-03-27T13:03:28.455Z,9.01
2023-03-27T13:06:14.262Z,10.02
2023-03-27T13:08:55.447Z,10.41
2023-03-27T13:11:37.378Z,10.51
2023-03-27T13:14:33.326Z,10.06
2023-03-27T13:17:30.327Z,9.91
2023-03-27T13:20:09.848Z,9.43
2023-03-27T13:23:01.983Z,7.85
2023-03-27T13:25:41.119Z,8.77
2023-03-27T13:28:28.312Z,9.19
2023-03-27T13:30:58.367Z,10.11
2023-03-27T13:33:39.813Z,10.60
2023-03-27T13:36:12.649Z,9.59
2023-03-27T13:39:15.312Z,9.40
2023-03-27T13:41:58.904Z,9.91
2023-03-27T13:44:35.821Z,9.49
2023-03-27T13:47:24.052Z,9.07
2023-03-27T13:50:17.893Z,9.49
2023-03-27T13:53:22.432Z,9.37
2023-03-27T13:56:07.233Z,9.23
2023-03-27T13:58:56.700Z,9.71
2023-03-27T14:01:48.383Z,9.55
2023-03-27T14:04:30.548Z,10.06
2023-03-27T14:07:41.287Z,9.66
2023-03-27T14:10:28.716Z,8.96
2023-03-27T14:13:15.633Z,8.87
2023-03-27T14:16:16.223Z,8.66
2023-03-27T14:19:21.780Z,9.20
2023-03-27T14:21:54.000Z,9.01
2023-03-27T14:24:30.412Z,8.83
2023-03-27T14:26:59.564Z,9.99
2023-03-27T14:29:28.904Z,9.03
2023-03-27T14:32:04.928Z,9.05
2023-03-27T14:34:47.366Z,9.03
2023-03-27T14:37:28.966Z,9.13
2023-03-27T14:39:57.335Z,9.33
2023-03-27T14:42:31.279Z,9.16
2023-03-27T14:45:11.681Z,8.34
2023-03-27T14:47:40.805Z,9.70
2023-03-27T14:50:14.756Z,9.68
2023-03-27T14:52:43.898Z,10.98
2023-03-27T14:55:14.387Z,11.36
2023-03-27T14:57:42.287Z,10.61
2023-03-27T15:00:16.565Z,10.86
2023-03-27T15:02:48.193Z,11.35
2023-03-27T15:05:18.467Z,11.29
2023-03-27T15:07:49.082Z,10.13
2023-03-27T15:10:22.537Z,11.18
2023-03-27T15:12:50.525Z,11.19
2023-03-27T15:15:23.720Z,11.03
2023-03-27T15:17:55.908Z,11.35
2023-03-27T15:20:28.092Z,11.65
2023-03-27T15:23:01.363Z,12.00
2023-03-27T15:25:36.986Z,11.56
2023-03-27T15:28:10.361Z,12.21
2023-03-27T15:30:43.616Z,11.25
2023-03-27T15:33:20.525Z,11.49
2023-03-27T15:35:52.716Z,10.95
2023-03-27T15:38:28.979Z,10.39
2023-03-27T15:41:03.090Z,9.62
2023-03-27T15:43:31.897Z,9.92
2023-03-27T15:46:14.105Z,10.22
2023-03-27T15:48:45.566Z,9.93
2023-03-27T15:51:15.293Z,9.90
2023-03-27T15:53:45.147Z,9.75
2023-03-27T15:56:22.687Z,9.62
2023-03-27T15:58:54.248Z,9.76
2023-03-27T16:01:24.721Z,9.77
2023-03-27T16:03:56.094Z,9.68
2023-03-27T16:06:30.712Z,9.85
2023-03-27T16:08:59.053Z,9.86
2023-03-27T16:11:39.708Z,9.97
2023-03-27T16:14:20.897Z,10.04
2023-03-27T16:16:49.682Z,9.95
2023-03-27T16:19:18.831Z,9.80
2023-03-27T16:21:55.418Z,9.30
2023-03-27T16:24:23.110Z,8.87
2023-03-27T16:26:52.621Z,9.26
2023-03-27T16:29:22.101Z,9.32
2023-03-27T16:31:49.793Z,9.07
2023-03-27T16:34:22.207Z,9.10
2023-03-27T16:36:51.386Z,9.13
2023-03-27T16:39:19.538Z,8.83
2023-03-27T16:41:47.743Z,7.95
2023-03-27T16:44:15.728Z,7.42
2023-03-27T16:46:43.482Z,6.98
2023-03-27T16:49:12.750Z,6.73
2023-03-27T16:51:41.841Z,6.73
2023-03-27T16:54:09.528Z,6.41
2023-03-27T16:56:37.198Z,6.45
2023-03-27T16:59:05.745Z,6.75
2023-03-27T17:01:33.513Z,6.84
2023-03-27T17:04:01.190Z,6.84
2023-03-27T17:06:28.854Z,6.84
2023-03-27T17:08:57.913Z,6.84
2023-03-27T17:11:25.628Z,7.15
2023-03-27T17:13:53.773Z,7.28
2023-03-27T17:16:21.643Z,7.30
2023-03-27T17:18:49.357Z,7.45
2023-03-27T17:21:17.403Z,7.50
2023-03-27T17:23:48.363Z,7.10
2023-03-27T17:26:24.745Z,6.86
2023-03-27T17:28:52.498Z,6.70
2023-03-27T17:31:20.814Z,6.44
2023-03-27T17:33:48.884Z,6.84
2023-03-27T17:36:23.892Z,6.79
2023-03-27T17:38:57.617Z,6.38
2023-03-27T17:41:28.804Z,5.26
2023-03-27T17:43:56.525Z,4.99
2023-03-27T17:46:24.351Z,4.71
2023-03-27T17:48:52.387Z,4.74
2023-03-27T17:51:21.577Z,4.67
2023-03-27T17:53:49.365Z,4.99
2023-03-27T17:56:17.162Z,4.79
2023-03-27T17:58:50.028Z,4.84
2023-03-27T18:01:19.488Z,4.89
2023-03-27T18:03:47.839Z,4.98
2023-03-27T18:06:17.683Z,5.07
2023-03-27T18:08:46.228Z,5.17
2023-03-27T18:11:16.412Z,4.82
2023-03-27T18:13:44.872Z,4.99
2023-03-27T18:16:14.097Z,4.81
2023-03-27T18:18:41.859Z,4.87
2023-03-27T18:21:09.905Z,4.97
2023-03-27T18:23:45.724Z,4.95
2023-03-27T18:26:15.500Z,4.62
2023-03-27T18:28:43.487Z,4.41
2023-03-27T18:31:12.840Z,4.35
2023-03-27T18:33:41.920Z,4.29
2023-03-27T18:36:11.977Z,4.24
2023-03-27T18:38:40.904Z,4.13
2023-03-27T18:41:09.627Z,4.17
2023-03-27T18:43:37.553Z,4.16
2023-03-27T18:46:06.900Z,4.04
2023-03-27T18:48:35.716Z,4.27
2023-03-27T18:51:06.895Z,4.06
2023-03-27T18:53:34.803Z,4.12
2023-03-27T18:56:03.314Z,4.21
2023-03-27T18:58:31.297Z,4.03
2023-03-27T19:01:00.124Z,4.01
2023-03-27T19:03:30.560Z,4.07
2023-03-27T19:06:02.101Z,3.78
2023-03-27T19:08:31.538Z,3.81
2023-03-27T19:10:59.558Z,3.78
2023-03-27T19:13:27.617Z,3.89
2023-03-27T19:15:55.444Z,4.12
2023-03-27T19:18:25.550Z,4.20
2023-03-27T19:20:53.361Z,4.03
2023-03-27T19:23:21.223Z,4.00
2023-03-27T19:25:51.204Z,3.93
2023-03-27T19:28:19.124Z,3.88
2023-03-27T19:30:47.090Z,3.72
2023-03-27T19:33:15.048Z,3.70
2023-03-27T19:35:43.064Z,3.71
2023-03-27T19:38:11.309Z,3.67
2023-03-27T19:40:39.308Z,3.66
2023-03-27T19:43:08.740Z,3.55
2023-03-27T19:45:36.456Z,3.50
2023-03-27T19:48:04.422Z,3.51
2023-03-27T19:50:32.314Z,3.41
2023-03-27T19:53:08.168Z,3.34
2023-03-27T19:55:36.791Z,3.22
2023-03-27T19:58:04.659Z,3.20
2023-03-27T20:00:35.157Z,3.08
2023-03-27T20:03:03.131Z,2.91
2023-03-27T20:05:31.220Z,2.79
2023-03-27T20:07:58.885Z,2.74
2023-03-27T20:10:27.077Z,2.62
2023-03-27T20:12:54.767Z,2.65
2023-03-27T20:15:22.589Z,2.56
2023-03-27T20:17:51.964Z,2.52
2023-03-27T20:20:19.965Z,2.49
2023-03-27T20:22:57.130Z,2.39
2023-03-27T20:25:27.944Z,2.36
2023-03-27T20:27:55.939Z,2.32
2023-03-27T20:30:23.682Z,2.42
2023-03-27T20:32:52.906Z,2.24
2023-03-27T20:35:24.744Z,2.25
2023-03-27T20:37:57.509Z,2.28
2023-03-27T20:40:26.184Z,2.25
2023-03-27T20:43:02.884Z,2.22
2023-03-27T20:45:30.781Z,2.23
2023-03-27T20:48:04.470Z,2.19
2023-03-27T20:50:35.898Z,2.09
2023-03-27T20:53:04.976Z,2.00
2023-03-27T20:55:37.338Z,1.95
2023-03-27T20:58:09.507Z,2.02
2023-03-27T21:00:37.894Z,1.89
2023-03-27T21:03:07.181Z,1.93
2023-03-27T21:05:38.170Z,1.86
2023-03-27T21:08:07.261Z,1.75
2023-03-27T21:10:34.961Z,1.82
2023-03-27T21:13:03.586Z,1.76
2023-03-27T21:15:31.924Z,1.83
2023-03-27T21:17:59.943Z,1.77
2023-03-27T21:20:34.556Z,1.74
2023-03-27T21:23:03.120Z,1.66
2023-03-27T21:25:31.067Z,1.63
2023-03-27T21:27:58.760Z,1.52
2023-03-27T21:30:46.999Z,1.42
2023-03-27T21:33:15.655Z,1.40
2023-03-27T21:35:46.954Z,1.36
2023-03-27T21:38:16.397Z,1.43
2023-03-27T21:40:44.432Z,1.36
2023-03-27T21:43:13.110Z,1.28
2023-03-27T21:45:41.061Z,1.30
2023-03-27T21:48:10.932Z,1.20
2023-03-27T21:50:40.797Z,1.16
2023-03-27T21:53:09.985Z,1.13
2023-03-27T21:55:38.519Z,1.06
2023-03-27T21:58:06.914Z,1.04
2023-03-27T22:00:35.037Z,1.05
2023-03-27T22:03:02.930Z,1.01
2023-03-27T22:05:30.709Z,1.09
2023-03-27T22:07:58.652Z,1.14
2023-03-27T22:10:27.741Z,1.12
2023-03-27T22:12:55.502Z,1.30
2023-03-27T22:15:23.341Z,1.23
2023-03-27T22:17:51.098Z,1.29
2023-03-27T22:20:18.975Z,1.29
2023-03-27T22:22:48.388Z,1.46
2023-03-27T22:25:16.529Z,1.32
2023-03-27T22:27:46.388Z,1.23
2023-03-27T22:30:14.872Z,1.34
2023-03-27T22:32:43.308Z,1.42
2023-03-27T22:35:11.393Z,1.41
2023-03-27T22:37:40.345Z,1.27
2023-03-27T22:40:09.572Z,1.26
2023-03-27T22:42:37.507Z,1.19
2023-03-27T22:45:07.238Z,1.09
2023-03-27T22:47:35.796Z,1.05
2023-03-27T22:50:04.885Z,0.97
2023-03-27T22:52:32.643Z,0.99
2023-03-27T22:55:00.325Z,0.99
2023-03-27T22:57:28.212Z,1.06
2023-03-27T22:59:55.970Z,1.02
2023-03-27T23:02:25.099Z,0.97
2023-03-27T23:04:52.812Z,1.07
2023-03-27T23:07:20.450Z,0.87
2023-03-27T23:09:48.170Z,0.91
2023-03-27T23:12:16.054Z,0.85
2023-03-27T23:14:43.970Z,0.99
2023-03-27T23:17:11.713Z,0.95
2023-03-27T23:19:40.875Z,1.04
2023-03-27T23:22:08.701Z,0.92
2023-03-27T23:24:36.396Z,0.94
2023-03-27T23:27:04.926Z,0.97
2023-03-27T23:29:32.689Z,1.01
2023-03-27T23:32:00.465Z,1.01
2023-03-27T23:34:28.432Z,1.10
2023-03-27T23:36:57.487Z,1.08
2023-03-27T23:39:25.288Z,1.03
2023-03-27T23:41:52.863Z,0.93
2023-03-27T23:44:20.530Z,0.95
2023-03-27T23:46:48.144Z,0.90
2023-03-27T23:49:15.970Z,0.91
2023-03-27T23:51:43.560Z,0.94
2023-03-27T23:54:12.508Z,0.88
2023-03-27T23:56:40.244Z,0.83
2023-03-27T23:59:07.928Z,0.78
